Marion, MA (02738)

11:22 AM EDT on August 30, 2016 (GMT -0400)
| | Change Station

Elev -9999 ft 0.00 °N, 0.00 °E | Updated

Partly Cloudy
Partly Cloudy
79 °F
Feels Like 79 °F
N
8
Wind Variable Wind from South
Gusts mph

Today
High -- | Low -- °F
--% Chance of Precip.
Yesterday
High -- | Low -- °F
Precip. -- in
Pressure 30.15 in
Visibility 10.0 miles
Clouds Scattered Clouds 3500 ft
Dew Point 57 °F
Humidity 47%
Rainfall --
Snow Depth Not available.
6:07 AM 7:18 PM
Waning Crescent, 3% visible
METAR KEWB 301453Z COR 00000KT 10SM SCT035 24/13 A3015 RMK AO2 SLP210 T02390128 50000
Pressure 30.15 in
Visibility 10.0 miles
Clouds Scattered Clouds 3500 ft
Dew Point 57 °F
Humidity 47%
Rainfall --
Snow Depth Not available.
6:07 AM 7:18 PM
Waning Crescent, 3% visible
METAR KEWB 301453Z COR 00000KT 10SM SCT035 24/13 A3015 RMK AO2 SLP210 T02390128 50000

10-Day Weather Forecast

Almanac

Astronomy

Aug. 30, 2016 Rise Set
Actual Time
Civil Twilight
Nautical Twilight
Astronomical Twilight
Moon
Length of Visible Light
Length of Day
Tomorrow will be .
, % of the Moon is Illuminated

Today's Extremes

State Highs State Lows

Community

WunderPhotos

Upload Photos

1,935,855 photos uploaded!

WunderBlog® & News

Nearby

Air Quality

  Air Quality AQ Index Pollutant
Not available.

Snow Depth

Station Depth Elevation

Earthquake Activity

City Distance Mag. Time & Date
Minimum magnitude displayed is 2.5.

Coastal Water Temperatures

Place Temperature

Stations

Nearby Weather Stations

Station Location Temp. Windchill Dew Point Humidity Wind Precip. Elev Updated Type
                   

Watches & Warnings

There are currently no watches in effect.